sensor_id;sensor_type;location;lat;lon;timestamp;pressure;altitude;pressure_sealevel;temperature;humidity
72558;BME280;60583;50.094;8.748;2023-10-19T00:00:39;98666.63;;;11.08;100.00
72558;BME280;60583;50.094;8.748;2023-10-19T00:03:06;98644.44;;;11.02;100.00
72558;BME280;60583;50.094;8.748;2023-10-19T00:05:35;98648.03;;;11.13;100.00
72558;BME280;60583;50.094;8.748;2023-10-19T00:08:02;98651.59;;;11.18;100.00
72558;BME280;60583;50.094;8.748;2023-10-19T00:10:40;98639.06;;;11.19;100.00
72558;BME280;60583;50.094;8.748;2023-10-19T00:13:09;98639.47;;;11.27;100.00
72558;BME280;60583;50.094;8.748;2023-10-19T00:15:39;98624.03;;;11.13;100.00
72558;BME280;60583;50.094;8.748;2023-10-19T00:18:08;98629.44;;;11.18;100.00
72558;BME280;60583;50.094;8.748;2023-10-19T00:20:44;98621.94;;;11.15;100.00
72558;BME280;60583;50.094;8.748;2023-10-19T00:23:13;98630.31;;;11.23;100.00
72558;BME280;60583;50.094;8.748;2023-10-19T00:25:44;98631.94;;;11.24;100.00
72558;BME280;60583;50.094;8.748;2023-10-19T00:28:16;98628.94;;;11.21;100.00
72558;BME280;60583;50.094;8.748;2023-10-19T00:30:43;98638.59;;;11.22;100.00
72558;BME280;60583;50.094;8.748;2023-10-19T00:33:10;98639.28;;;11.34;100.00
72558;BME280;60583;50.094;8.748;2023-10-19T00:35:43;98640.16;;;11.39;100.00
72558;BME280;60583;50.094;8.748;2023-10-19T00:38:31;98640.22;;;11.44;100.00
72558;BME280;60583;50.094;8.748;2023-10-19T00:41:04;98627.69;;;11.45;100.00
72558;BME280;60583;50.094;8.748;2023-10-19T00:43:41;98639.66;;;11.42;100.00
72558;BME280;60583;50.094;8.748;2023-10-19T00:46:17;98636.47;;;11.45;100.00
72558;BME280;60583;50.094;8.748;2023-10-19T00:48:54;98624.09;;;11.56;100.00
72558;BME280;60583;50.094;8.748;2023-10-19T00:51:22;98621.19;;;11.58;100.00
72558;BME280;60583;50.094;8.748;2023-10-19T00:54:05;98613.13;;;11.52;100.00
72558;BME280;60583;50.094;8.748;2023-10-19T00:56:35;98611.28;;;11.58;100.00
72558;BME280;60583;50.094;8.748;2023-10-19T00:59:01;98613.97;;;11.58;100.00
72558;BME280;60583;50.094;8.748;2023-10-19T01:01:38;98610.50;;;11.58;100.00
72558;BME280;60583;50.094;8.748;2023-10-19T01:04:09;98618.63;;;11.68;100.00
72558;BME280;60583;50.094;8.748;2023-10-19T01:06:40;98600.59;;;11.58;100.00
72558;BME280;60583;50.094;8.748;2023-10-19T01:09:09;98608.38;;;11.60;100.00
72558;BME280;60583;50.094;8.748;2023-10-19T01:11:34;98604.78;;;11.71;100.00
72558;BME280;60583;50.094;8.748;2023-10-19T01:14:17;98607.53;;;11.76;100.00
72558;BME280;60583;50.094;8.748;2023-10-19T01:16:43;98589.22;;;11.63;100.00
72558;BME280;60583;50.094;8.748;2023-10-19T01:19:11;98588.69;;;11.66;100.00
72558;BME280;60583;50.094;8.748;2023-10-19T01:21:36;98581.38;;;11.56;100.00
72558;BME280;60583;50.094;8.748;2023-10-19T01:24:10;98563.88;;;11.43;100.00
72558;BME280;60583;50.094;8.748;2023-10-19T01:26:42;98576.22;;;11.49;100.00
72558;BME280;60583;50.094;8.748;2023-10-19T01:29:08;98592.81;;;11.51;100.00
72558;BME280;60583;50.094;8.748;2023-10-19T01:31:47;98587.19;;;11.53;100.00
72558;BME280;60583;50.094;8.748;2023-10-19T01:34:20;98572.19;;;11.47;100.00
72558;BME280;60583;50.094;8.748;2023-10-19T01:36:47;98587.19;;;11.53;100.00
72558;BME280;60583;50.094;8.748;2023-10-19T01:39:16;98566.03;;;11.46;100.00
72558;BME280;60583;50.094;8.748;2023-10-19T01:41:44;98586.78;;;11.61;100.00
72558;BME280;60583;50.094;8.748;2023-10-19T01:44:10;98581.19;;;11.63;100.00
72558;BME280;60583;50.094;8.748;2023-10-19T01:46:39;98575.59;;;11.64;100.00
72558;BME280;60583;50.094;8.748;2023-10-19T01:49:05;98567.28;;;11.61;100.00
72558;BME280;60583;50.094;8.748;2023-10-19T01:51:33;98570.53;;;11.63;100.00
72558;BME280;60583;50.094;8.748;2023-10-19T01:54:03;98579.31;;;11.63;100.00
72558;BME280;60583;50.094;8.748;2023-10-19T01:56:29;98564.09;;;11.64;100.00
72558;BME280;60583;50.094;8.748;2023-10-19T01:58:54;98564.19;;;11.69;100.00
72558;BME280;60583;50.094;8.748;2023-10-19T02:01:20;98550.75;;;11.64;100.00
72558;BME280;60583;50.094;8.748;2023-10-19T02:03:59;98549.16;;;11.63;100.00
72558;BME280;60583;50.094;8.748;2023-10-19T02:06:29;98565.81;;;11.70;100.00
72558;BME280;60583;50.094;8.748;2023-10-19T02:09:13;98545.97;;;11.66;100.00
72558;BME280;60583;50.094;8.748;2023-10-19T02:11:57;98549.84;;;11.75;100.00
72558;BME280;60583;50.094;8.748;2023-10-19T02:14:25;98545.97;;;11.66;100.00
72558;BME280;60583;50.094;8.748;2023-10-19T02:16:55;98538.47;;;11.63;100.00
72558;BME280;60583;50.094;8.748;2023-10-19T02:19:26;98542.84;;;11.69;100.00
72558;BME280;60583;50.094;8.748;2023-10-19T02:21:54;98529.41;;;11.64;100.00
72558;BME280;60583;50.094;8.748;2023-10-19T02:24:21;98517.13;;;11.63;100.00
72558;BME280;60583;50.094;8.748;2023-10-19T02:26:52;98534.38;;;11.77;100.00
72558;BME280;60583;50.094;8.748;2023-10-19T02:29:17;98521.63;;;11.84;100.00
72558;BME280;60583;50.094;8.748;2023-10-19T02:31:44;98517.91;;;11.85;100.00
72558;BME280;60583;50.094;8.748;2023-10-19T02:34:11;98528.16;;;11.93;100.00
72558;BME280;60583;50.094;8.748;2023-10-19T02:36:41;98526.03;;;11.95;100.00
72558;BME280;60583;50.094;8.748;2023-10-19T02:39:08;98520.63;;;11.90;100.00
72558;BME280;60583;50.094;8.748;2023-10-19T02:41:45;98516.88;;;11.91;100.00
72558;BME280;60583;50.094;8.748;2023-10-19T02:44:16;98524.41;;;11.94;100.00
72558;BME280;60583;50.094;8.748;2023-10-19T02:46:41;98516.34;;;11.89;100.00
72558;BME280;60583;50.094;8.748;2023-10-19T02:49:08;98520.09;;;11.88;100.00
72558;BME280;60583;50.094;8.748;2023-10-19T02:51:41;98500.31;;;11.89;100.00
72558;BME280;60583;50.094;8.748;2023-10-19T02:54:07;98499.22;;;11.85;100.00
72558;BME280;60583;50.094;8.748;2023-10-19T02:56:33;98507.00;;;11.91;100.00
72558;BME280;60583;50.094;8.748;2023-10-19T02:59:05;98507.28;;;11.90;100.00
72558;BME280;60583;50.094;8.748;2023-10-19T03:01:31;98485.81;;;11.80;100.00
72558;BME280;60583;50.094;8.748;2023-10-19T03:03:59;98506.50;;;11.94;100.00
72558;BME280;60583;50.094;8.748;2023-10-19T03:06:28;98499.53;;;11.93;100.00
72558;BME280;60583;50.094;8.748;2023-10-19T03:09:04;98492.28;;;11.89;100.00
72558;BME280;60583;50.094;8.748;2023-10-19T03:11:38;98478.72;;;11.90;100.00
72558;BME280;60583;50.094;8.748;2023-10-19T03:14:06;98491.25;;;11.90;100.00
72558;BME280;60583;50.094;8.748;2023-10-19T03:16:31;98499.25;;;11.90;100.00
72558;BME280;60583;50.094;8.748;2023-10-19T03:18:57;98503.84;;;11.94;100.00
72558;BME280;60583;50.094;8.748;2023-10-19T03:21:22;98499.31;;;11.95;100.00
72558;BME280;60583;50.094;8.748;2023-10-19T03:23:57;98498.81;;;11.98;100.00
72558;BME280;60583;50.094;8.748;2023-10-19T03:26:24;98482.16;;;11.91;100.00
72558;BME280;60583;50.094;8.748;2023-10-19T03:28:50;98489.94;;;11.92;100.00
72558;BME280;60583;50.094;8.748;2023-10-19T03:31:23;98503.84;;;11.94;100.00
72558;BME280;60583;50.094;8.748;2023-10-19T03:33:52;98501.38;;;11.88;100.00
72558;BME280;60583;50.094;8.748;2023-10-19T03:36:21;98467.63;;;11.77;100.00
72558;BME280;60583;50.094;8.748;2023-10-19T03:38:47;98496.69;;;12.00;100.00
72558;BME280;60583;50.094;8.748;2023-10-19T03:41:15;98472.28;;;11.91;100.00
72558;BME280;60583;50.094;8.748;2023-10-19T03:43:41;98482.47;;;11.94;100.00
72558;BME280;60583;50.094;8.748;2023-10-19T03:46:07;98487.03;;;11.99;100.00
72558;BME280;60583;50.094;8.748;2023-10-19T03:48:50;98478.03;;;12.05;100.00
72558;BME280;60583;50.094;8.748;2023-10-19T03:51:15;98472.09;;;11.98;100.00
72558;BME280;60583;50.094;8.748;2023-10-19T03:53:41;98476.03;;;11.90;100.00
72558;BME280;60583;50.094;8.748;2023-10-19T03:56:13;98448.97;;;11.82;100.00
72558;BME280;60583;50.094;8.748;2023-10-19T03:58:39;98462.91;;;11.89;100.00
72558;BME280;60583;50.094;8.748;2023-10-19T04:01:07;98448.22;;;11.86;100.00
72558;BME280;60583;50.094;8.748;2023-10-19T04:03:34;98448.50;;;11.90;100.00
72558;BME280;60583;50.094;8.748;2023-10-19T04:06:01;98450.91;;;11.91;100.00
72558;BME280;60583;50.094;8.748;2023-10-19T04:08:29;98446.63;;;11.85;100.00
72558;BME280;60583;50.094;8.748;2023-10-19T04:11:00;98452.53;;;11.92;100.00
72558;BME280;60583;50.094;8.748;2023-10-19T04:13:37;98457.94;;;11.97;100.00
72558;BME280;60583;50.094;8.748;2023-10-19T04:16:02;98462.75;;;12.00;100.00
72558;BME280;60583;50.094;8.748;2023-10-19T04:18:28;98448.56;;;11.95;100.00
72558;BME280;60583;50.094;8.748;2023-10-19T04:20:54;98458.00;;;12.07;100.00
72558;BME280;60583;50.094;8.748;2023-10-19T04:23:20;98437.34;;;11.93;100.00
72558;BME280;60583;50.094;8.748;2023-10-19T04:25:55;98435.19;;;11.95;100.00
72558;BME280;60583;50.094;8.748;2023-10-19T04:28:30;98434.66;;;11.93;100.00
72558;BME280;60583;50.094;8.748;2023-10-19T04:31:11;98431.38;;;11.86;100.00
72558;BME280;60583;50.094;8.748;2023-10-19T04:33:39;98419.91;;;11.85;100.00
72558;BME280;60583;50.094;8.748;2023-10-19T04:36:05;98414.81;;;11.84;100.00
72558;BME280;60583;50.094;8.748;2023-10-19T04:38:33;98413.72;;;11.80;100.00
72558;BME280;60583;50.094;8.748;2023-10-19T04:41:07;98417.81;;;11.92;100.00
72558;BME280;60583;50.094;8.748;2023-10-19T04:43:37;98410.09;;;11.96;100.00
72558;BME280;60583;50.094;8.748;2023-10-19T04:46:10;98407.94;;;11.93;100.00
72558;BME280;60583;50.094;8.748;2023-10-19T04:48:37;98399.28;;;11.81;100.00
72558;BME280;60583;50.094;8.748;2023-10-19T04:51:06;98407.91;;;11.88;100.00
72558;BME280;60583;50.094;8.748;2023-10-19T04:53:32;98423.47;;;12.01;100.00
72558;BME280;60583;50.094;8.748;2023-10-19T04:55:58;98423.25;;;12.02;100.00
72558;BME280;60583;50.094;8.748;2023-10-19T04:58:27;98429.44;;;12.08;100.00
72558;BME280;60583;50.094;8.748;2023-10-19T05:00:53;98420.31;;;12.04;100.00
72558;BME280;60583;50.094;8.748;2023-10-19T05:03:19;98421.34;;;11.98;100.00
72558;BME280;60583;50.094;8.748;2023-10-19T05:05:44;98408.44;;;11.90;100.00
72558;BME280;60583;50.094;8.748;2023-10-19T05:08:11;98434.50;;;12.09;100.00
72558;BME280;60583;50.094;8.748;2023-10-19T05:10:36;98421.06;;;11.99;100.00
72558;BME280;60583;50.094;8.748;2023-10-19T05:13:02;98435.78;;;12.02;100.00
72558;BME280;60583;50.094;8.748;2023-10-19T05:15:29;98428.06;;;12.05;100.00
72558;BME280;60583;50.094;8.748;2023-10-19T05:17:54;98418.66;;;11.98;100.00
72558;BME280;60583;50.094;8.748;2023-10-19T05:20:20;98439.59;;;12.11;100.00
72558;BME280;60583;50.094;8.748;2023-10-19T05:22:46;98441.22;;;12.12;100.00
72558;BME280;60583;50.094;8.748;2023-10-19T05:25:12;98431.84;;;12.09;100.00
72558;BME280;60583;50.094;8.748;2023-10-19T05:27:38;98433.22;;;12.17;100.00
72558;BME280;60583;50.094;8.748;2023-10-19T05:30:04;98413.41;;;12.08;100.00
72558;BME280;60583;50.094;8.748;2023-10-19T05:32:30;98412.63;;;12.12;100.00
72558;BME280;60583;50.094;8.748;2023-10-19T05:34:56;98429.28;;;12.25;100.00
72558;BME280;60583;50.094;8.748;2023-10-19T05:37:22;98430.28;;;12.18;100.00
72558;BME280;60583;50.094;8.748;2023-10-19T05:39:48;98423.31;;;12.12;100.00
72558;BME280;60583;50.094;8.748;2023-10-19T05:42:17;98403.50;;;12.08;100.00
72558;BME280;60583;50.094;8.748;2023-10-19T05:44:42;98422.03;;;12.20;100.00
72558;BME280;60583;50.094;8.748;2023-10-19T05:47:08;98412.34;;;12.14;100.00
72558;BME280;60583;50.094;8.748;2023-10-19T05:49:33;98408.63;;;12.15;100.00
72558;BME280;60583;50.094;8.748;2023-10-19T05:51:59;98403.81;;;12.12;100.00
72558;BME280;60583;50.094;8.748;2023-10-19T05:54:24;98408.88;;;12.13;100.00
72558;BME280;60583;50.094;8.748;2023-10-19T05:56:50;98411.31;;;12.15;100.00
72558;BME280;60583;50.094;8.748;2023-10-19T05:59:17;98407.56;;;12.16;100.00
72558;BME280;60583;50.094;8.748;2023-10-19T06:01:42;98410.03;;;12.23;100.00
72558;BME280;60583;50.094;8.748;2023-10-19T06:04:11;98407.03;;;12.19;100.00
72558;BME280;60583;50.094;8.748;2023-10-19T06:06:38;98415.63;;;12.26;100.00
72558;BME280;60583;50.094;8.748;2023-10-19T06:09:05;98413.53;;;12.28;100.00
72558;BME280;60583;50.094;8.748;2023-10-19T06:11:33;98418.34;;;12.31;100.00
72558;BME280;60583;50.094;8.748;2023-10-19T06:13:59;98408.66;;;12.20;100.00
72558;BME280;60583;50.094;8.748;2023-10-19T06:16:25;98421.56;;;12.28;100.00
72558;BME280;60583;50.094;8.748;2023-10-19T06:18:50;98421.31;;;12.35;100.00
72558;BME280;60583;50.094;8.748;2023-10-19T06:21:19;98400.41;;;12.27;100.00
72558;BME280;60583;50.094;8.748;2023-10-19T06:23:45;98413.03;;;12.36;100.00
72558;BME280;60583;50.094;8.748;2023-10-19T06:26:11;98410.91;;;12.33;100.00
72558;BME280;60583;50.094;8.748;2023-10-19T06:28:37;98421.34;;;12.40;100.00
72558;BME280;60583;50.094;8.748;2023-10-19T06:31:05;98418.41;;;12.41;100.00
72558;BME280;60583;50.094;8.748;2023-10-19T06:33:30;98428.00;;;12.37;100.00
72558;BME280;60583;50.094;8.748;2023-10-19T06:35:58;98429.06;;;12.36;100.00
72558;BME280;60583;50.094;8.748;2023-10-19T06:38:24;98429.06;;;12.36;100.00
72558;BME280;60583;50.094;8.748;2023-10-19T06:40:51;98433.94;;;12.44;100.00
72558;BME280;60583;50.094;8.748;2023-10-19T06:43:16;98433.94;;;12.44;100.00
72558;BME280;60583;50.094;8.748;2023-10-19T06:45:44;98437.69;;;12.43;100.00
72558;BME280;60583;50.094;8.748;2023-10-19T06:48:10;98424.25;;;12.33;100.00
72558;BME280;60583;50.094;8.748;2023-10-19T06:50:37;98432.34;;;12.43;100.00
72558;BME280;60583;50.094;8.748;2023-10-19T06:53:03;98443.59;;;12.50;100.00
72558;BME280;60583;50.094;8.748;2023-10-19T06:55:30;98428.59;;;12.44;100.00
72558;BME280;60583;50.094;8.748;2023-10-19T06:57:56;98440.16;;;12.55;100.00
72558;BME280;60583;50.094;8.748;2023-10-19T07:00:23;98430.25;;;12.55;100.00
72558;BME280;60583;50.094;8.748;2023-10-19T07:02:53;98433.78;;;12.61;100.00
72558;BME280;60583;50.094;8.748;2023-10-19T07:05:20;98435.13;;;12.63;100.00
72558;BME280;60583;50.094;8.748;2023-10-19T07:07:48;98423.34;;;12.64;100.00
72558;BME280;60583;50.094;8.748;2023-10-19T07:10:15;98425.53;;;12.72;100.00
72558;BME280;60583;50.094;8.748;2023-10-19T07:12:42;98425.00;;;12.70;100.00
72558;BME280;60583;50.094;8.748;2023-10-19T07:15:08;98389.59;;;12.48;100.00
72558;BME280;60583;50.094;8.748;2023-10-19T07:17:39;98426.06;;;12.74;100.00
72558;BME280;60583;50.094;8.748;2023-10-19T07:20:05;98420.75;;;12.79;100.00
72558;BME280;60583;50.094;8.748;2023-10-19T07:22:35;98419.41;;;12.82;100.00
72558;BME280;60583;50.094;8.748;2023-10-19T07:25:05;98411.63;;;12.75;100.00
72558;BME280;60583;50.094;8.748;2023-10-19T07:27:32;98418.34;;;12.78;100.00
72558;BME280;60583;50.094;8.748;2023-10-19T07:29:59;98404.94;;;12.73;100.00
72558;BME280;60583;50.094;8.748;2023-10-19T07:32:24;98428.28;;;12.88;100.00
72558;BME280;60583;50.094;8.748;2023-10-19T07:34:50;98413.81;;;12.78;100.00
72558;BME280;60583;50.094;8.748;2023-10-19T07:37:15;98429.91;;;12.89;100.00
72558;BME280;60583;50.094;8.748;2023-10-19T07:39:49;98411.16;;;12.84;100.00
72558;BME280;60583;50.094;8.748;2023-10-19T07:42:17;98432.31;;;12.95;100.00
72558;BME280;60583;50.094;8.748;2023-10-19T07:44:43;98439.84;;;13.03;100.00
72558;BME280;60583;50.094;8.748;2023-10-19T07:47:11;98423.78;;;12.98;100.00
72558;BME280;60583;50.094;8.748;2023-10-19T07:49:36;98426.47;;;13.03;100.00
72558;BME280;60583;50.094;8.748;2023-10-19T07:52:05;98431.00;;;13.03;100.00
72558;BME280;60583;50.094;8.748;2023-10-19T07:54:38;98419.72;;;12.91;100.00
72558;BME280;60583;50.094;8.748;2023-10-19T07:57:04;98418.69;;;13.02;100.00
72558;BME280;60583;50.094;8.748;2023-10-19T07:59:33;98422.47;;;13.06;100.00
72558;BME280;60583;50.094;8.748;2023-10-19T08:01:59;98424.09;;;13.12;100.00
72558;BME280;60583;50.094;8.748;2023-10-19T08:04:28;98419.28;;;13.09;100.00
72558;BME280;60583;50.094;8.748;2023-10-19T08:06:54;98426.53;;;13.13;100.00
72558;BME280;60583;50.094;8.748;2023-10-19T08:09:21;98421.22;;;13.23;100.00
72558;BME280;60583;50.094;8.748;2023-10-19T08:11:50;98416.38;;;13.25;100.00
72558;BME280;60583;50.094;8.748;2023-10-19T08:14:22;98397.38;;;13.37;100.00
72558;BME280;60583;50.094;8.748;2023-10-19T08:16:49;98418.84;;;13.52;100.00
72558;BME280;60583;50.094;8.748;2023-10-19T08:19:15;98416.97;;;13.48;100.00
72558;BME280;60583;50.094;8.748;2023-10-19T08:21:40;98395.00;;;13.35;100.00
72558;BME280;60583;50.094;8.748;2023-10-19T08:24:06;98392.59;;;13.34;100.00
72558;BME280;60583;50.094;8.748;2023-10-19T08:26:31;98402.75;;;13.42;100.00
72558;BME280;60583;50.094;8.748;2023-10-19T08:28:57;98411.88;;;13.41;100.00
72558;BME280;60583;50.094;8.748;2023-10-19T08:31:25;98411.88;;;13.36;100.00
72558;BME280;60583;50.094;8.748;2023-10-19T08:33:50;98409.19;;;13.41;100.00
72558;BME280;60583;50.094;8.748;2023-10-19T08:36:18;98408.66;;;13.39;100.00
72558;BME280;60583;50.094;8.748;2023-10-19T08:38:47;98420.72;;;13.47;100.00
72558;BME280;60583;50.094;8.748;2023-10-19T08:41:14;98437.06;;;13.55;100.00
72558;BME280;60583;50.094;8.748;2023-10-19T08:43:40;98416.72;;;13.49;100.00
72558;BME280;60583;50.094;8.748;2023-10-19T08:46:06;98440.03;;;13.64;100.00
72558;BME280;60583;50.094;8.748;2023-10-19T08:48:35;98435.72;;;13.58;100.00
72558;BME280;60583;50.094;8.748;2023-10-19T08:51:05;98441.38;;;13.66;100.00
72558;BME280;60583;50.094;8.748;2023-10-19T08:53:34;98437.59;;;13.67;100.00
72558;BME280;60583;50.094;8.748;2023-10-19T08:56:05;98419.13;;;13.66;100.00
72558;BME280;60583;50.094;8.748;2023-10-19T08:58:32;98422.88;;;13.75;100.00
72558;BME280;60583;50.094;8.748;2023-10-19T09:00:57;98418.09;;;13.82;100.00
72558;BME280;60583;50.094;8.748;2023-10-19T09:03:25;98407.38;;;13.87;100.00
72558;BME280;60583;50.094;8.748;2023-10-19T09:05:51;98394.75;;;13.87;100.00
72558;BME280;60583;50.094;8.748;2023-10-19T09:08:18;98380.81;;;13.85;100.00
72558;BME280;60583;50.094;8.748;2023-10-19T09:10:45;98384.59;;;13.94;100.00
72558;BME280;60583;50.094;8.748;2023-10-19T09:13:11;98366.91;;;13.83;100.00
72558;BME280;60583;50.094;8.748;2023-10-19T09:15:38;98397.19;;;13.89;100.00
72558;BME280;60583;50.094;8.748;2023-10-19T09:18:14;98398.75;;;13.95;100.00
72558;BME280;60583;50.094;8.748;2023-10-19T09:20:40;98376.56;;;13.89;100.00
72558;BME280;60583;50.094;8.748;2023-10-19T09:23:07;98395.81;;;14.01;100.00
72558;BME280;60583;50.094;8.748;2023-10-19T09:25:33;98370.38;;;13.94;100.00
72558;BME280;60583;50.094;8.748;2023-10-19T09:28:00;98392.03;;;14.07;100.00
72558;BME280;60583;50.094;8.748;2023-10-19T09:30:29;98403.84;;;14.17;100.00
72558;BME280;60583;50.094;8.748;2023-10-19T09:32:56;98385.91;;;14.17;100.00
72558;BME280;60583;50.094;8.748;2023-10-19T09:35:24;98379.44;;;14.18;100.00
72558;BME280;60583;50.094;8.748;2023-10-19T09:37:54;98387.25;;;14.15;100.00
72558;BME280;60583;50.094;8.748;2023-10-19T09:40:20;98384.81;;;14.08;100.00
72558;BME280;60583;50.094;8.748;2023-10-19T09:42:47;98381.34;;;14.02;100.00
72558;BME280;60583;50.094;8.748;2023-10-19T09:45:18;98374.91;;;14.08;100.00
72558;BME280;60583;50.094;8.748;2023-10-19T09:47:49;98376.75;;;14.23;100.00
72558;BME280;60583;50.094;8.748;2023-10-19T09:50:15;98373.00;;;14.24;100.00
72558;BME280;60583;50.094;8.748;2023-10-19T09:52:40;98351.03;;;14.22;100.00
72558;BME280;60583;50.094;8.748;2023-10-19T09:55:13;98365.75;;;14.40;100.00
72558;BME280;60583;50.094;8.748;2023-10-19T09:57:48;98363.34;;;14.33;100.00
72558;BME280;60583;50.094;8.748;2023-10-19T10:00:14;98355.31;;;14.33;100.00
72558;BME280;60583;50.094;8.748;2023-10-19T10:02:43;98358.78;;;14.39;100.00
72558;BME280;60583;50.094;8.748;2023-10-19T10:10:49;98346.41;;;14.48;100.00
72558;BME280;60583;50.094;8.748;2023-10-19T10:15:52;98351.16;;;14.71;100.00
72558;BME280;60583;50.094;8.748;2023-10-19T10:18:18;98344.09;;;14.90;100.00
72558;BME280;60583;50.094;8.748;2023-10-19T10:20:43;98344.31;;;14.94;100.00
72558;BME280;60583;50.094;8.748;2023-10-19T10:23:19;98341.38;;;14.95;100.00
72558;BME280;60583;50.094;8.748;2023-10-19T10:25:50;98339.97;;;15.08;100.00
72558;BME280;60583;50.094;8.748;2023-10-19T10:28:19;98333.28;;;15.05;100.00
72558;BME280;60583;50.094;8.748;2023-10-19T10:31:07;98335.88;;;15.15;100.00
72558;BME280;60583;50.094;8.748;2023-10-19T10:33:43;98340.16;;;15.16;100.00
72558;BME280;60583;50.094;8.748;2023-10-19T10:36:14;98341.25;;;15.15;100.00
72558;BME280;60583;50.094;8.748;2023-10-19T10:38:40;98332.41;;;15.15;100.00
72558;BME280;60583;50.094;8.748;2023-10-19T10:41:06;98326.19;;;15.19;100.00
72558;BME280;60583;50.094;8.748;2023-10-19T10:43:47;98332.88;;;15.22;100.00
72558;BME280;60583;50.094;8.748;2023-10-19T10:46:14;98335.56;;;15.22;100.00
72558;BME280;60583;50.094;8.748;2023-10-19T10:48:42;98335.47;;;15.37;100.00
72558;BME280;60583;50.094;8.748;2023-10-19T10:51:17;98339.91;;;15.57;100.00
72558;BME280;60583;50.094;8.748;2023-10-19T10:53:43;98324.47;;;15.72;100.00
72558;BME280;60583;50.094;8.748;2023-10-19T10:56:09;98331.66;;;15.77;100.00
72558;BME280;60583;50.094;8.748;2023-10-19T10:58:34;98340.09;;;15.94;100.00
72558;BME280;60583;50.094;8.748;2023-10-19T11:00:59;98332.94;;;16.13;100.00
72558;BME280;60583;50.094;8.748;2023-10-19T11:03:25;98336.00;;;16.54;100.00
72558;BME280;60583;50.094;8.748;2023-10-19T11:05:55;98343.09;;;16.69;100.00
72558;BME280;60583;50.094;8.748;2023-10-19T11:08:24;98341.22;;;16.88;100.00
72558;BME280;60583;50.094;8.748;2023-10-19T11:10:49;98333.53;;;16.57;100.00
72558;BME280;60583;50.094;8.748;2023-10-19T11:13:23;98332.72;;;16.57;100.00
72558;BME280;60583;50.094;8.748;2023-10-19T11:15:50;98335.41;;;16.57;100.00
72558;BME280;60583;50.094;8.748;2023-10-19T11:18:28;98334.97;;;16.74;100.00
72558;BME280;60583;50.094;8.748;2023-10-19T11:20:55;98322.94;;;16.66;100.00
72558;BME280;60583;50.094;8.748;2023-10-19T11:23:34;98320.25;;;16.85;100.00
72558;BME280;60583;50.094;8.748;2023-10-19T11:26:00;98306.72;;;16.90;100.00
72558;BME280;60583;50.094;8.748;2023-10-19T11:28:27;98316.63;;;16.76;100.00
72558;BME280;60583;50.094;8.748;2023-10-19T11:30:54;98307.50;;;16.53;100.00
72558;BME280;60583;50.094;8.748;2023-10-19T11:33:20;98319.84;;;16.54;100.00
72558;BME280;60583;50.094;8.748;2023-10-19T11:35:49;98322.69;;;16.39;100.00
72558;BME280;60583;50.094;8.748;2023-10-19T11:38:15;98317.84;;;16.41;100.00
72558;BME280;60583;50.094;8.748;2023-10-19T11:40:43;98306.41;;;16.49;100.00
72558;BME280;60583;50.094;8.748;2023-10-19T11:43:08;98293.25;;;16.47;100.00
72558;BME280;60583;50.094;8.748;2023-10-19T11:45:34;98305.69;;;16.43;100.00
72558;BME280;60583;50.094;8.748;2023-10-19T11:48:00;98291.31;;;16.29;100.00
72558;BME280;60583;50.094;8.748;2023-10-19T11:50:26;98272.91;;;16.18;100.00
72558;BME280;60583;50.094;8.748;2023-10-19T11:52:52;98294.53;;;16.31;100.00
72558;BME280;60583;50.094;8.748;2023-10-19T11:55:17;98284.38;;;16.28;100.00
72558;BME280;60583;50.094;8.748;2023-10-19T11:57:43;98278.38;;;16.31;100.00
72558;BME280;60583;50.094;8.748;2023-10-19T12:00:12;98259.75;;;16.16;100.00
72558;BME280;60583;50.094;8.748;2023-10-19T12:02:47;98267.28;;;16.14;100.00
72558;BME280;60583;50.094;8.748;2023-10-19T12:05:12;98259.97;;;16.20;100.00
72558;BME280;60583;50.094;8.748;2023-10-19T12:07:38;98260.66;;;16.30;100.00
72558;BME280;60583;50.094;8.748;2023-10-19T12:10:06;98233.94;;;16.15;100.00
72558;BME280;60583;50.094;8.748;2023-10-19T12:12:33;98263.00;;;16.37;100.00
72558;BME280;60583;50.094;8.748;2023-10-19T12:14:59;98250.84;;;16.39;100.00
72558;BME280;60583;50.094;8.748;2023-10-19T12:17:24;98256.47;;;16.43;100.00
72558;BME280;60583;50.094;8.748;2023-10-19T12:19:52;98268.09;;;16.38;100.00
72558;BME280;60583;50.094;8.748;2023-10-19T12:22:18;98255.22;;;16.35;100.00
72558;BME280;60583;50.094;8.748;2023-10-19T12:24:43;98248.09;;;16.26;100.00
72558;BME280;60583;50.094;8.748;2023-10-19T12:27:09;98247.72;;;16.32;100.00
72558;BME280;60583;50.094;8.748;2023-10-19T12:29:35;98261.34;;;16.41;100.00
72558;BME280;60583;50.094;8.748;2023-10-19T12:32:00;98264.97;;;16.50;100.00
72558;BME280;60583;50.094;8.748;2023-10-19T12:34:25;98258.94;;;16.39;100.00
72558;BME280;60583;50.094;8.748;2023-10-19T12:36:55;98261.41;;;16.36;100.00
72558;BME280;60583;50.094;8.748;2023-10-19T12:39:22;98257.66;;;16.32;100.00
72558;BME280;60583;50.094;8.748;2023-10-19T12:42:01;98251.41;;;16.36;100.00
72558;BME280;60583;50.094;8.748;2023-10-19T12:44:26;98239.66;;;16.32;100.00
72558;BME280;60583;50.094;8.748;2023-10-19T12:46:55;98244.00;;;16.28;100.00
72558;BME280;60583;50.094;8.748;2023-10-19T12:49:22;98245.09;;;16.27;100.00
72558;BME280;60583;50.094;8.748;2023-10-19T12:51:51;98239.84;;;16.17;100.00
72558;BME280;60583;50.094;8.748;2023-10-19T12:54:17;98232.91;;;16.11;100.00
72558;BME280;60583;50.094;8.748;2023-10-19T12:56:43;98242.47;;;16.22;100.00
72558;BME280;60583;50.094;8.748;2023-10-19T12:59:09;98233.31;;;16.23;100.00
72558;BME280;60583;50.094;8.748;2023-10-19T13:01:35;98231.19;;;16.20;100.00
72558;BME280;60583;50.094;8.748;2023-10-19T13:04:00;98218.38;;;16.12;100.00